Time;durP1;ratioP1;P1;durP2;ratioP2;P2;SDS_P1;SDS_P2;PMS_P1;PMS_P2;Temp;Humidity;BMP_temperature;BMP_pressure;BME280_temperature;BME280_humidity;BME280_pressure;Samples;Min_cycle;Max_cycle;Signal;HPM_P1;HPM_P2
2022/06/06 00:01:40;;;;;;;0.30;0.30;;;;;;;;;;5083691;28;20294;-85
2022/06/06 00:04:06;;;;;;;0.90;0.40;;;;;;;;;;5082218;28;20032;-85
2022/06/06 00:06:32;;;;;;;0.80;0.30;;;;;;;;;;5084000;28;20048;-86
2022/06/06 00:08:58;;;;;;;0.15;0.15;;;;;;;;;;5081782;28;20024;-85
2022/06/06 00:11:24;;;;;;;0.57;0.27;;;;;;;;;;5084766;28;20028;-86
2022/06/06 00:13:51;;;;;;;0.45;0.45;;;;;;;;;;5085292;28;20043;-86
2022/06/06 00:16:17;;;;;;;0.40;0.40;;;;;;;;;;5082611;28;20473;-85
2022/06/06 00:18:43;;;;;;;1.20;0.63;;;;;;;;;;5081426;28;20069;-86
2022/06/06 00:21:11;;;;;;;0.10;0.10;;;;;;;;;;5081541;28;20032;-86
2022/06/06 00:23:37;;;;;;;0.13;0.13;;;;;;;;;;5081260;28;20478;-87
2022/06/06 00:26:12;;;;;;;0.22;0.22;;;;;;;;;;5083841;28;20495;-86
2022/06/06 00:28:39;;;;;;;0.40;0.40;;;;;;;;;;5084573;28;20027;-86
2022/06/06 00:36:35;;;;;;;0.20;0.20;;;;;;;;;;5080719;28;20089;-87
2022/06/06 00:39:02;;;;;;;0.90;0.82;;;;;;;;;;5079905;28;20121;-85
2022/06/06 00:41:28;;;;;;;1.70;0.95;;;;;;;;;;5063828;28;20037;-91
2022/06/06 00:44:03;;;;;;;0.43;0.43;;;;;;;;;;5082709;28;20056;-83
2022/06/06 00:46:30;;;;;;;0.47;0.47;;;;;;;;;;5083656;28;20024;-83
2022/06/06 00:48:56;;;;;;;0.32;0.28;;;;;;;;;;5081268;28;20024;-83
2022/06/06 00:51:22;;;;;;;0.43;0.43;;;;;;;;;;5080615;28;20040;-83
2022/06/06 00:53:50;;;;;;;0.20;0.20;;;;;;;;;;5080217;28;20025;-82
2022/06/06 00:56:22;;;;;;;0.30;0.30;;;;;;;;;;5081944;28;20039;-82
2022/06/06 00:58:50;;;;;;;1.17;1.00;;;;;;;;;;5083046;28;20024;-81
2022/06/06 01:01:16;;;;;;;0.93;0.93;;;;;;;;;;5080046;28;20040;-82
2022/06/06 01:03:43;;;;;;;0.30;0.30;;;;;;;;;;5081546;28;20036;-83
2022/06/06 01:06:11;;;;;;;1.05;1.02;;;;;;;;;;5079843;28;20593;-82
2022/06/06 01:08:38;;;;;;;0.30;0.30;;;;;;;;;;5082610;28;20116;-82
2022/06/06 01:11:04;;;;;;;0.68;0.52;;;;;;;;;;5075941;28;20028;-81
2022/06/06 01:13:32;;;;;;;0.95;0.63;;;;;;;;;;5082351;28;20028;-80
2022/06/06 01:16:16;;;;;;;0.65;0.63;;;;;;;;;;5080145;28;20024;-79
2022/06/06 01:18:48;;;;;;;1.48;0.60;;;;;;;;;;5078760;28;20027;-79
2022/06/06 01:21:18;;;;;;;0.30;0.30;;;;;;;;;;5079702;28;20071;-79
2022/06/06 01:24:02;;;;;;;0.35;0.35;;;;;;;;;;5082442;28;20032;-79
2022/06/06 01:26:47;;;;;;;0.35;0.35;;;;;;;;;;5080371;28;20598;-80
2022/06/06 01:29:16;;;;;;;0.75;0.75;;;;;;;;;;5079771;28;20036;-80
2022/06/06 01:31:48;;;;;;;0.52;0.52;;;;;;;;;;5081592;28;20103;-81
2022/06/06 01:34:20;;;;;;;0.20;0.20;;;;;;;;;;5062484;28;20143;-81
2022/06/06 01:36:50;;;;;;;4.18;0.38;;;;;;;;;;5079334;28;20035;-83
2022/06/06 01:39:16;;;;;;;0.47;0.47;;;;;;;;;;5077683;28;20143;-82
2022/06/06 01:41:42;;;;;;;0.47;0.30;;;;;;;;;;5078572;28;20516;-86
2022/06/06 01:44:27;;;;;;;0.20;0.20;;;;;;;;;;5082216;28;20588;-82
2022/06/06 01:46:54;;;;;;;0.22;0.22;;;;;;;;;;5046119;28;20135;-83
2022/06/06 01:49:23;;;;;;;0.10;0.10;;;;;;;;;;5080881;28;20024;-83
2022/06/06 01:51:59;;;;;;;0.20;0.20;;;;;;;;;;5079777;28;20028;-83
2022/06/06 01:54:26;;;;;;;0.40;0.40;;;;;;;;;;5080176;28;20028;-83
2022/06/06 01:56:52;;;;;;;0.68;0.40;;;;;;;;;;5080769;28;20460;-83
2022/06/06 01:59:18;;;;;;;0.30;0.30;;;;;;;;;;5063305;28;22032;-83
2022/06/06 02:01:45;;;;;;;0.30;0.30;;;;;;;;;;5077375;28;20119;-83
2022/06/06 02:04:12;;;;;;;10.07;2.03;;;;;;;;;;5079854;28;20051;-83
2022/06/06 02:06:41;;;;;;;0.83;0.53;;;;;;;;;;5078972;28;20036;-83
2022/06/06 02:09:09;;;;;;;0.38;0.38;;;;;;;;;;5078861;28;20048;-83
2022/06/06 02:11:35;;;;;;;0.77;0.70;;;;;;;;;;5080602;28;20043;-82
2022/06/06 02:14:01;;;;;;;0.27;0.20;;;;;;;;;;5054671;28;20028;-83
2022/06/06 02:16:27;;;;;;;0.23;0.23;;;;;;;;;;5083904;28;20054;-82
2022/06/06 02:18:53;;;;;;;0.10;0.10;;;;;;;;;;5082795;28;20651;-82
2022/06/06 02:21:19;;;;;;;0.37;0.23;;;;;;;;;;5082706;28;20602;-82
2022/06/06 02:23:48;;;;;;;0.30;0.30;;;;;;;;;;5084155;28;20034;-81
2022/06/06 02:26:14;;;;;;;0.30;0.30;;;;;;;;;;5086921;28;20055;-81
2022/06/06 02:28:40;;;;;;;0.30;0.30;;;;;;;;;;5085535;28;20024;-82
2022/06/06 02:31:06;;;;;;;0.10;0.10;;;;;;;;;;5083164;28;20270;-80
2022/06/06 02:33:33;;;;;;;0.20;0.20;;;;;;;;;;5080997;28;20402;-84
2022/06/06 02:36:02;;;;;;;1.10;0.73;;;;;;;;;;5084659;28;20035;-84
2022/06/06 02:38:29;;;;;;;0.10;0.10;;;;;;;;;;5084562;28;20494;-84
2022/06/06 02:40:55;;;;;;;0.40;0.40;;;;;;;;;;5086918;28;20114;-84
2022/06/06 02:43:21;;;;;;;0.30;0.30;;;;;;;;;;5085593;28;20365;-88
2022/06/06 02:45:50;;;;;;;0.47;0.47;;;;;;;;;;5086142;28;20051;-87
2022/06/06 02:48:16;;;;;;;0.68;0.68;;;;;;;;;;5082179;28;20461;-87
2022/06/06 02:50:43;;;;;;;4.28;0.55;;;;;;;;;;5085773;28;20063;-87
2022/06/06 02:53:09;;;;;;;0.30;0.30;;;;;;;;;;5081028;28;20028;-86
2022/06/06 02:55:36;;;;;;;0.70;0.50;;;;;;;;;;5085121;28;20107;-89
2022/06/06 02:58:02;;;;;;;0.95;0.90;;;;;;;;;;5083244;28;20020;-88
2022/06/06 03:00:30;;;;;;;0.30;0.30;;;;;;;;;;5067690;28;20118;-89
2022/06/06 03:02:56;;;;;;;0.10;0.10;;;;;;;;;;5083508;28;20040;-90
2022/06/06 03:05:24;;;;;;;0.30;0.30;;;;;;;;;;5086269;28;20028;-89
2022/06/06 03:07:53;;;;;;;0.10;0.10;;;;;;;;;;5083487;28;20107;-88
2022/06/06 03:10:34;;;;;;;0.47;0.45;;;;;;;;;;5084770;28;20453;-88
2022/06/06 03:13:00;;;;;;;0.75;0.28;;;;;;;;;;5082291;28;20032;-89
2022/06/06 03:20:46;;;;;;;0.30;0.30;;;;;;;;;;5084274;28;20035;-88
2022/06/06 03:21:31;;;;;;;0.20;0.20;;;;;;;;;;5079314;28;20060;-87
2022/06/06 03:23:59;;;;;;;0.10;0.10;;;;;;;;;;5082739;28;20089;-87
2022/06/06 03:26:38;;;;;;;0.38;0.38;;;;;;;;;;5083694;28;20045;-86
2022/06/06 03:29:04;;;;;;;0.15;0.15;;;;;;;;;;5081755;28;20078;-87
2022/06/06 03:32:08;;;;;;;0.32;0.32;;;;;;;;;;5084778;28;20070;-89
2022/06/06 03:34:39;;;;;;;0.47;0.30;;;;;;;;;;5002998;28;20057;-88
2022/06/06 03:37:05;;;;;;;0.20;0.20;;;;;;;;;;5001208;28;20108;-90
2022/06/06 03:39:34;;;;;;;0.37;0.37;;;;;;;;;;5000762;28;20044;-87
2022/06/06 03:42:19;;;;;;;0.30;0.30;;;;;;;;;;4997188;28;20042;-87
2022/06/06 03:44:50;;;;;;;0.13;0.13;;;;;;;;;;4999570;28;20041;-87
2022/06/06 03:47:45;;;;;;;0.13;0.13;;;;;;;;;;4996033;28;20465;-87
2022/06/06 03:50:17;;;;;;;0.10;0.10;;;;;;;;;;4936070;28;20859;-87
2022/06/06 03:52:46;;;;;;;0.10;0.10;;;;;;;;;;4935638;28;20046;-88
2022/06/06 03:55:18;;;;;;;0.10;0.10;;;;;;;;;;4926258;29;20043;-89
2022/06/06 03:57:45;;;;;;;0.45;0.43;;;;;;;;;;4943385;28;20031;-88
2022/06/06 04:00:12;;;;;;;0.10;0.10;;;;;;;;;;4941831;29;20043;-87
2022/06/06 04:02:39;;;;;;;0.60;0.40;;;;;;;;;;4931943;29;20971;-88
2022/06/06 04:05:07;;;;;;;0.15;0.15;;;;;;;;;;4953118;28;20408;-88
2022/06/06 04:07:33;;;;;;;0.22;0.22;;;;;;;;;;4994076;28;20049;-88
2022/06/06 04:09:59;;;;;;;0.20;0.20;;;;;;;;;;4988544;28;20127;-87
2022/06/06 04:12:37;;;;;;;0.30;0.30;;;;;;;;;;4990146;28;20037;-88
2022/06/06 04:15:15;;;;;;;0.17;0.17;;;;;;;;;;4990287;28;20486;-89
2022/06/06 04:17:50;;;;;;;0.10;0.10;;;;;;;;;;4996075;28;20026;-87
2022/06/06 04:20:48;;;;;;;0.35;0.35;;;;;;;;;;4991162;28;20050;-87
2022/06/06 04:23:26;;;;;;;0.20;0.20;;;;;;;;;;4953513;28;20055;-87
2022/06/06 04:25:59;;;;;;;0.28;0.28;;;;;;;;;;4967217;28;20052;-87
2022/06/06 04:28:25;;;;;;;0.40;0.40;;;;;;;;;;4999206;28;20069;-89
2022/06/06 04:30:59;;;;;;;0.50;0.50;;;;;;;;;;4986798;28;20026;-87
2022/06/06 04:33:29;;;;;;;0.22;0.22;;;;;;;;;;4998382;28;20046;-88
2022/06/06 04:35:55;;;;;;;0.10;0.10;;;;;;;;;;4982309;28;20109;-88
2022/06/06 04:38:27;;;;;;;0.20;0.20;;;;;;;;;;4999380;28;20045;-88
2022/06/06 04:40:59;;;;;;;0.32;0.32;;;;;;;;;;4985072;28;20046;-88
2022/06/06 04:43:36;;;;;;;0.88;0.75;;;;;;;;;;4996595;28;20052;-82
2022/06/06 04:46:02;;;;;;;0.20;0.20;;;;;;;;;;4998309;28;20053;-82
2022/06/06 04:48:28;;;;;;;0.53;0.53;;;;;;;;;;4995541;28;20041;-82
2022/06/06 04:50:55;;;;;;;0.10;0.10;;;;;;;;;;4998549;28;20036;-82
2022/06/06 04:53:22;;;;;;;0.15;0.15;;;;;;;;;;5000500;28;20304;-81
2022/06/06 04:55:50;;;;;;;0.50;0.50;;;;;;;;;;5000305;28;20029;-81
2022/06/06 04:58:16;;;;;;;0.60;0.28;;;;;;;;;;5019137;28;20042;-81
2022/06/06 05:00:43;;;;;;;0.08;0.08;;;;;;;;;;5082226;28;20078;-82
2022/06/06 05:03:09;;;;;;;0.10;0.10;;;;;;;;;;5076533;28;20596;-81
2022/06/06 05:05:45;;;;;;;0.10;0.10;;;;;;;;;;5081588;28;20035;-83
2022/06/06 05:08:27;;;;;;;0.65;0.65;;;;;;;;;;5082250;28;20064;-82
2022/06/06 05:10:53;;;;;;;0.10;0.10;;;;;;;;;;5083357;28;20023;-81
2022/06/06 05:13:19;;;;;;;0.35;0.35;;;;;;;;;;5081472;28;20028;-83
2022/06/06 05:16:18;;;;;;;0.93;0.40;;;;;;;;;;5080273;28;20020;-85
2022/06/06 05:18:50;;;;;;;0.73;0.60;;;;;;;;;;4997864;28;20192;-83
2022/06/06 05:21:19;;;;;;;1.55;0.70;;;;;;;;;;4999349;28;20056;-84
2022/06/06 05:24:04;;;;;;;0.75;0.75;;;;;;;;;;4993715;28;20426;-84
2022/06/06 05:26:38;;;;;;;0.47;0.43;;;;;;;;;;4997473;28;20597;-85
2022/06/06 05:29:16;;;;;;;0.28;0.28;;;;;;;;;;4996977;28;20045;-84
2022/06/06 05:31:54;;;;;;;0.30;0.30;;;;;;;;;;4999092;28;20879;-83
2022/06/06 05:34:37;;;;;;;0.50;0.50;;;;;;;;;;4997481;28;20041;-82
2022/06/06 05:37:06;;;;;;;0.40;0.40;;;;;;;;;;4997659;28;20065;-83
2022/06/06 05:39:34;;;;;;;0.20;0.20;;;;;;;;;;4994010;28;20057;-82
2022/06/06 05:42:19;;;;;;;0.10;0.10;;;;;;;;;;4998700;28;20050;-83
2022/06/06 05:44:51;;;;;;;0.10;0.10;;;;;;;;;;4996688;28;20046;-87
2022/06/06 05:47:31;;;;;;;0.88;0.88;;;;;;;;;;4998863;28;20052;-87
2022/06/06 05:50:15;;;;;;;0.20;0.20;;;;;;;;;;5000584;28;20061;-85
2022/06/06 05:53:00;;;;;;;0.22;0.22;;;;;;;;;;4994046;28;20748;-86
2022/06/06 05:55:26;;;;;;;0.73;0.63;;;;;;;;;;5074173;28;20048;-88
2022/06/06 05:57:52;;;;;;;0.33;0.30;;;;;;;;;;5080038;28;20495;-84
2022/06/06 06:00:21;;;;;;;0.20;0.20;;;;;;;;;;5079928;28;20077;-88
2022/06/06 06:02:53;;;;;;;0.25;0.25;;;;;;;;;;5079391;28;20118;-87
2022/06/06 06:05:19;;;;;;;0.10;0.10;;;;;;;;;;5079781;28;20032;-85
2022/06/06 06:07:58;;;;;;;0.17;0.17;;;;;;;;;;5081858;28;20024;-86
2022/06/06 06:10:33;;;;;;;0.47;0.43;;;;;;;;;;5080797;28;20054;-89
2022/06/06 06:13:06;;;;;;;0.10;0.10;;;;;;;;;;5080973;28;20398;-86
2022/06/06 06:15:36;;;;;;;0.25;0.25;;;;;;;;;;5077091;28;20026;-87
2022/06/06 06:18:07;;;;;;;0.20;0.20;;;;;;;;;;5076022;28;20024;-88
2022/06/06 06:20:43;;;;;;;0.32;0.30;;;;;;;;;;5060793;28;20034;-87
2022/06/06 06:23:12;;;;;;;0.50;0.33;;;;;;;;;;5083614;28;20519;-90
2022/06/06 06:25:40;;;;;;;0.65;0.43;;;;;;;;;;5085175;28;20297;-88
2022/06/06 06:28:10;;;;;;;0.40;0.40;;;;;;;;;;5072537;28;20136;-90
2022/06/06 06:30:56;;;;;;;0.85;0.55;;;;;;;;;;5058974;28;20030;-88
2022/06/06 06:33:33;;;;;;;0.10;0.10;;;;;;;;;;5074140;28;20089;-89
2022/06/06 06:36:07;;;;;;;0.43;0.32;;;;;;;;;;5070387;28;20027;-90
2022/06/06 06:38:40;;;;;;;0.05;0.05;;;;;;;;;;5072055;28;20101;-90
2022/06/06 06:41:30;;;;;;;0.22;0.13;;;;;;;;;;5073456;28;20103;-90
2022/06/06 06:44:10;;;;;;;0.15;0.15;;;;;;;;;;5079994;28;20104;-82
2022/06/06 06:46:43;;;;;;;0.30;0.30;;;;;;;;;;5075721;28;20401;-85
2022/06/06 06:49:19;;;;;;;0.00;0.00;;;;;;;;;;5073041;28;20548;-88
2022/06/06 06:52:04;;;;;;;0.00;0.00;;;;;;;;;;5075998;28;20032;-89
2022/06/06 06:55:06;;;;;;;0.03;0.03;;;;;;;;;;5073179;28;20055;-89
2022/06/06 06:57:38;;;;;;;0.50;0.20;;;;;;;;;;5016412;28;20030;-85
2022/06/06 07:00:07;;;;;;;0.22;0.22;;;;;;;;;;5019245;28;20236;-91
2022/06/06 07:08:42;;;;;;;0.10;0.10;;;;;;;;;;5021893;28;20044;-91
2022/06/06 07:11:12;;;;;;;0.30;0.30;;;;;;;;;;5018590;28;20128;-92
2022/06/06 07:13:55;;;;;;;2.22;0.40;;;;;;;;;;5019252;28;20388;-91
2022/06/06 07:16:27;;;;;;;0.38;0.08;;;;;;;;;;5016428;28;20084;-92
2022/06/06 07:18:58;;;;;;;0.10;0.10;;;;;;;;;;5012717;28;20034;-87
2022/06/06 07:21:25;;;;;;;0.20;0.20;;;;;;;;;;5000079;28;20993;-87
2022/06/06 07:23:53;;;;;;;0.00;0.00;;;;;;;;;;5012468;28;20029;-86
2022/06/06 07:26:19;;;;;;;0.20;0.20;;;;;;;;;;5014601;28;20046;-87
2022/06/06 07:28:45;;;;;;;0.75;0.60;;;;;;;;;;5016907;28;20026;-88
2022/06/06 07:31:11;;;;;;;0.35;0.20;;;;;;;;;;5017483;28;20047;-86
2022/06/06 07:33:52;;;;;;;0.43;0.30;;;;;;;;;;5051391;28;20055;-85
2022/06/06 07:36:27;;;;;;;0.15;0.10;;;;;;;;;;5070423;28;20024;-85
2022/06/06 07:38:54;;;;;;;0.40;0.30;;;;;;;;;;5076606;28;20035;-85
2022/06/06 07:41:40;;;;;;;0.10;0.10;;;;;;;;;;5063677;28;20127;-83
2022/06/06 07:44:06;;;;;;;3.30;1.15;;;;;;;;;;5004651;28;20037;-86
2022/06/06 07:46:42;;;;;;;0.00;0.00;;;;;;;;;;5007687;28;20042;-86
2022/06/06 07:49:18;;;;;;;0.15;0.10;;;;;;;;;;5003268;28;20128;-85
2022/06/06 07:51:50;;;;;;;1.23;0.30;;;;;;;;;;4989616;28;20112;-85
2022/06/06 07:54:39;;;;;;;0.20;0.20;;;;;;;;;;4982659;28;20034;-84
2022/06/06 07:57:17;;;;;;;0.00;0.00;;;;;;;;;;4998675;28;20061;-86
2022/06/06 07:59:46;;;;;;;0.05;0.05;;;;;;;;;;4999139;28;20519;-85
2022/06/06 08:02:31;;;;;;;0.20;0.20;;;;;;;;;;5000266;28;20048;-81
2022/06/06 08:05:15;;;;;;;1.10;0.82;;;;;;;;;;5000867;28;20117;-88
2022/06/06 08:07:42;;;;;;;0.32;0.10;;;;;;;;;;4998568;28;20503;-83
2022/06/06 08:10:37;;;;;;;0.10;0.10;;;;;;;;;;4997419;28;20084;-85
2022/06/06 08:13:18;;;;;;;0.15;0.15;;;;;;;;;;4980838;28;20048;-85
2022/06/06 08:15:53;;;;;;;0.98;0.52;;;;;;;;;;4999922;28;21315;-85
2022/06/06 08:18:30;;;;;;;0.00;0.00;;;;;;;;;;4998586;28;20088;-85
2022/06/06 08:21:08;;;;;;;0.10;0.10;;;;;;;;;;5013357;28;20420;-86
2022/06/06 08:23:35;;;;;;;0.20;0.20;;;;;;;;;;5073033;28;20040;-87
2022/06/06 08:26:01;;;;;;;0.43;0.20;;;;;;;;;;5070091;28;20128;-87
2022/06/06 08:28:28;;;;;;;0.10;0.10;;;;;;;;;;5074230;28;20557;-87
2022/06/06 08:30:54;;;;;;;1.55;0.95;;;;;;;;;;5073081;28;20027;-89
2022/06/06 08:33:20;;;;;;;0.70;0.60;;;;;;;;;;5052624;28;20036;-86
2022/06/06 08:36:05;;;;;;;0.00;0.00;;;;;;;;;;5049520;28;20786;-86
2022/06/06 08:38:38;;;;;;;0.00;0.00;;;;;;;;;;5071005;28;20058;-87
2022/06/06 08:41:22;;;;;;;0.00;0.00;;;;;;;;;;5070283;28;20111;-79
2022/06/06 08:43:58;;;;;;;0.00;0.00;;;;;;;;;;5068613;28;20032;-80
2022/06/06 08:46:49;;;;;;;0.05;0.05;;;;;;;;;;5079440;28;20036;-81
2022/06/06 08:52:17;;;;;;;0.00;0.00;;;;;;;;;;5078156;28;20127;-83
2022/06/06 08:54:49;;;;;;;0.00;0.00;;;;;;;;;;5076306;28;20020;-80
2022/06/06 08:57:34;;;;;;;0.10;0.08;;;;;;;;;;5076121;28;20036;-80
2022/06/06 09:00:16;;;;;;;0.38;0.38;;;;;;;;;;5076672;28;20055;-79
2022/06/06 09:03:01;;;;;;;0.17;0.17;;;;;;;;;;5078302;28;20513;-80
2022/06/06 09:05:27;;;;;;;;;;;;;;;;;;5075024;28;20036;-78
2022/06/06 09:08:12;;;;;;;0.00;0.00;;;;;;;;;;5076599;28;19912;-82
2022/06/06 09:10:56;;;;;;;0.20;0.13;;;;;;;;;;5079907;28;20043;-82
2022/06/06 09:13:37;;;;;;;0.10;0.03;;;;;;;;;;5078503;28;20786;-82
2022/06/06 09:16:07;;;;;;;0.10;0.10;;;;;;;;;;5045741;28;20103;-83
2022/06/06 09:18:39;;;;;;;0.13;0.13;;;;;;;;;;5074268;28;20024;-82
2022/06/06 09:21:05;;;;;;;0.30;0.10;;;;;;;;;;5074560;28;20055;-82
2022/06/06 09:23:31;;;;;;;;;;;;;;;;;;5067552;28;20035;-83
2022/06/06 09:26:07;;;;;;;0.00;0.00;;;;;;;;;;5072868;28;19912;-83
2022/06/06 09:28:43;;;;;;;0.28;0.28;;;;;;;;;;5073669;28;20044;-83
2022/06/06 09:31:18;;;;;;;0.10;0.10;;;;;;;;;;5070430;28;20569;-82
2022/06/06 09:34:06;;;;;;;0.00;0.00;;;;;;;;;;5075355;28;20363;-86
2022/06/06 09:36:36;;;;;;;0.00;0.00;;;;;;;;;;5078717;28;20113;-85
2022/06/06 09:39:09;;;;;;;0.10;0.03;;;;;;;;;;5076851;28;20024;-84
2022/06/06 09:41:40;;;;;;;0.10;0.10;;;;;;;;;;5075882;28;20038;-85
2022/06/06 09:44:09;;;;;;;0.03;0.03;;;;;;;;;;5071193;28;20083;-85
2022/06/06 09:46:44;;;;;;;0.08;0.00;;;;;;;;;;5068986;28;20063;-84
2022/06/06 09:49:29;;;;;;;0.10;0.10;;;;;;;;;;5057520;28;20040;-85
2022/06/06 09:52:04;;;;;;;0.43;0.43;;;;;;;;;;5074360;28;20032;-83
2022/06/06 10:00:21;;;;;;;0.08;0.08;;;;;;;;;;5078798;28;20120;-82
2022/06/06 10:03:00;;;;;;;0.00;0.00;;;;;;;;;;5062794;28;20047;-83
2022/06/06 10:05:41;;;;;;;0.20;0.20;;;;;;;;;;5079429;28;20032;-84
2022/06/06 10:08:20;;;;;;;1.75;0.20;;;;;;;;;;5081565;28;20058;-83
2022/06/06 10:11:05;;;;;;;0.08;0.08;;;;;;;;;;5080748;28;20046;-83
2022/06/06 10:13:49;;;;;;;0.30;0.25;;;;;;;;;;5077857;28;20036;-84
2022/06/06 10:16:16;;;;;;;1.73;0.50;;;;;;;;;;5073641;28;21377;-84
2022/06/06 10:18:42;;;;;;;0.00;0.00;;;;;;;;;;5076957;28;20472;-84
2022/06/06 10:21:08;;;;;;;;;;;;;;;;;;5075963;28;20044;-85
2022/06/06 10:23:40;;;;;;;0.00;0.00;;;;;;;;;;5059470;28;19917;-85
2022/06/06 10:26:20;;;;;;;0.00;0.00;;;;;;;;;;5077442;28;20079;-85
2022/06/06 10:42:10;;;;;;;0.10;0.10;;;27.50;54.10;;;;;;5374798;22;20450;-82
2022/06/06 10:44:39;;;;;;;0.00;0.00;;;27.50;54.90;;;;;;5026072;28;20738;-82
2022/06/06 10:47:21;;;;;;;0.15;0.15;;;28.50;56.90;;;;;;5037247;22;20402;-82
2022/06/06 10:50:12;;;;;;;0.13;0.13;;;28.50;54.20;;;;;;5047209;28;20460;-83
2022/06/06 10:52:54;;;;;;;0.73;0.40;;;27.60;52.50;;;;;;5048371;28;20021;-83
2022/06/06 10:55:25;;;;;;;0.10;0.10;;;27.70;53.10;;;;;;5033724;28;20037;-83
2022/06/06 10:58:04;;;;;;;0.05;0.05;;;28.30;51.40;;;;;;5046483;28;20099;-82
2022/06/06 11:00:59;;;;;;;0.20;0.20;;;27.80;51.30;;;;;;5048031;28;20070;-82
2022/06/06 11:03:34;;;;;;;0.00;0.00;;;27.70;54.30;;;;;;5052662;28;20098;-83
2022/06/06 11:06:25;;;;;;;0.00;0.00;;;28.20;50.30;;;;;;5056604;28;20547;-83
2022/06/06 11:09:28;;;;;;;0.10;0.00;;;27.70;49.40;;;;;;5052438;28;20083;-83
2022/06/06 11:12:22;;;;;;;0.00;0.00;;;28.10;53.80;;;;;;5038294;28;20028;-83
2022/06/06 11:14:48;;;;;;;2.22;1.10;;;28.20;51.30;;;;;;5051482;28;20037;-83
2022/06/06 11:17:48;;;;;;;0.13;0.13;;;28.20;53.90;;;;;;5039689;28;20381;-85
2022/06/06 11:20:51;;;;;;;0.20;0.10;;;28.20;54.80;;;;;;5055888;28;20593;-83
2022/06/06 11:23:35;;;;;;;0.00;0.00;;;28.20;56.50;;;;;;5055858;28;20040;-82
2022/06/06 11:26:28;;;;;;;1.45;0.30;;;28.40;54.60;;;;;;5055442;28;20029;-83
2022/06/06 11:29:21;;;;;;;0.55;0.55;;;27.60;57.50;;;;;;5058935;28;20034;-82
2022/06/06 11:32:12;;;;;;;0.10;0.10;;;27.30;55.50;;;;;;5048136;28;20040;-82
2022/06/06 11:34:41;;;;;;;0.10;0.10;;;27.70;53.60;;;;;;5049373;28;20119;-83
2022/06/06 11:37:32;;;;;;;0.00;0.00;;;27.90;54.70;;;;;;5045408;28;20435;-83
2022/06/06 11:40:17;;;;;;;0.00;0.00;;;28.10;51.20;;;;;;5010801;28;20042;-83
2022/06/06 11:42:54;;;;;;;0.70;0.22;;;28.20;54.70;;;;;;5013684;28;20048;-83
2022/06/06 11:46:01;;;;;;;0.00;0.00;;;28.10;49.20;;;;;;5013226;28;20037;-83
2022/06/06 11:48:41;;;;;;;0.00;0.00;;;28.30;49.80;;;;;;5013159;28;20081;-83
2022/06/06 11:51:40;;;;;;;0.25;0.10;;;28.10;51.20;;;;;;5011541;28;20049;-85
2022/06/06 11:54:27;;;;;;;0.00;0.00;;;28.00;53.60;;;;;;4999446;28;20061;-83
2022/06/06 11:58:06;;;;;;;0.17;0.10;;;28.40;52.40;;;;;;4999436;28;20076;-82
2022/06/06 12:01:03;;;;;;;0.10;0.10;;;28.70;52.90;;;;;;4910276;29;20055;-81
2022/06/06 12:04:03;;;;;;;0.00;0.00;;;28.80;50.70;;;;;;4915572;29;20036;-82
2022/06/06 12:06:34;;;;;;;0.00;0.00;;;28.70;51.90;;;;;;4911586;29;20644;-81
2022/06/06 12:09:00;;;;;;;0.00;0.00;;;28.20;52.20;;;;;;4916575;29;20046;-81
2022/06/06 12:11:50;;;;;;;0.20;0.20;;;27.20;53.70;;;;;;4904120;29;20036;-81
2022/06/06 12:14:30;;;;;;;0.00;0.00;;;27.10;51.80;;;;;;4915917;29;20072;-81
2022/06/06 12:17:23;;;;;;;0.43;0.32;;;27.20;56.30;;;;;;4916095;29;20072;-81
2022/06/06 12:20:01;;;;;;;0.00;0.00;;;27.20;54.70;;;;;;4923642;29;20047;-82
2022/06/06 12:22:47;;;;;;;1.50;0.43;;;27.30;54.90;;;;;;4923340;29;20131;-82
2022/06/06 12:25:57;;;;;;;9.82;0.80;;;27.30;55.50;;;;;;4922606;28;20043;-82
2022/06/06 12:29:13;;;;;;;0.22;0.20;;;26.70;53.00;;;;;;4919703;29;20047;-82
2022/06/06 12:31:39;;;;;;;0.10;0.10;;;26.60;58.10;;;;;;4882172;29;20088;-81
2022/06/06 12:34:07;;;;;;;0.32;0.32;;;26.70;55.50;;;;;;4911813;28;20050;-82
2022/06/06 12:36:57;;;;;;;0.10;0.10;;;26.80;55.10;;;;;;4981231;28;20640;-82
2022/06/06 12:39:31;;;;;;;0.05;0.05;;;26.90;57.00;;;;;;4981113;28;20469;-82
2022/06/06 12:42:03;;;;;;;0.10;0.10;;;27.10;56.50;;;;;;4980519;28;20045;-81
2022/06/06 12:44:55;;;;;;;1.88;0.50;;;26.50;53.70;;;;;;4981309;28;20050;-82
2022/06/06 12:48:03;;;;;;;0.00;0.00;;;26.60;54.10;;;;;;4963975;28;20073;-82
2022/06/06 12:50:48;;;;;;;0.00;0.00;;;26.20;52.60;;;;;;4976633;28;20046;-82
2022/06/06 12:53:28;;;;;;;0.30;0.30;;;26.10;55.40;;;;;;4963781;28;20422;-82
2022/06/06 12:59:26;;;;;;;0.20;0.10;;;26.50;55.00;;;;;;4956287;28;20031;-82
2022/06/06 13:02:22;;;;;;;0.00;0.00;;;27.00;55.40;;;;;;4949071;28;20102;-82
2022/06/06 13:04:54;;;;;;;0.10;0.10;;;26.60;52.60;;;;;;4961980;28;20054;-82
2022/06/06 13:07:56;;;;;;;0.10;0.00;;;26.40;54.80;;;;;;4962613;28;20038;-83
2022/06/06 13:10:42;;;;;;;0.10;0.10;;;26.60;58.10;;;;;;4964358;28;20085;-81
2022/06/06 13:13:26;;;;;;;1.55;0.15;;;27.00;54.00;;;;;;4959906;28;20138;-82
2022/06/06 13:16:18;;;;;;;0.10;0.10;;;27.40;56.00;;;;;;4959592;28;20066;-82
2022/06/06 13:19:03;;;;;;;1.60;0.40;;;27.60;53.20;;;;;;4962992;28;20088;-81
2022/06/06 13:21:42;;;;;;;0.13;0.13;;;27.20;53.40;;;;;;4966951;28;20089;-81
2022/06/06 13:24:07;;;;;;;0.03;0.03;;;26.80;55.90;;;;;;4959808;28;20046;-82
2022/06/06 13:26:50;;;;;;;0.00;0.00;;;26.80;56.70;;;;;;4961006;28;20518;-82
2022/06/06 13:29:27;;;;;;;0.73;0.30;;;27.00;56.50;;;;;;4975526;28;20547;-82
2022/06/06 13:32:01;;;;;;;0.00;0.00;;;27.00;57.50;;;;;;5043915;28;20559;-81
2022/06/06 13:35:00;;;;;;;0.00;0.00;;;26.80;56.80;;;;;;5025946;28;20068;-82
2022/06/06 13:37:54;;;;;;;0.03;0.03;;;26.40;57.10;;;;;;5025080;28;20025;-81
2022/06/06 13:40:44;;;;;;;0.00;0.00;;;26.20;56.50;;;;;;5042027;28;20025;-82
2022/06/06 13:43:31;;;;;;;0.08;0.08;;;26.10;58.20;;;;;;5042428;28;20033;-82
2022/06/06 13:46:39;;;;;;;0.08;0.08;;;25.80;56.30;;;;;;5025808;28;20037;-81
2022/06/06 13:49:25;;;;;;;0.10;0.10;;;25.90;57.60;;;;;;5034524;28;20048;-82
2022/06/06 13:51:57;;;;;;;0.32;0.32;;;25.40;57.40;;;;;;5039919;28;20024;-81
2022/06/06 13:54:35;;;;;;;0.10;0.10;;;25.30;60.90;;;;;;5025699;28;20130;-82
2022/06/06 13:57:06;;;;;;;0.10;0.10;;;25.30;60.70;;;;;;5025195;28;20044;-81
2022/06/06 13:59:43;;;;;;;0.20;0.20;;;24.90;57.50;;;;;;5041008;28;20107;-81
2022/06/06 14:02:27;;;;;;;0.20;0.20;;;24.70;56.10;;;;;;5021620;28;20048;-82
2022/06/06 14:05:19;;;;;;;0.08;0.08;;;24.90;58.40;;;;;;5042625;28;20029;-82
2022/06/06 14:07:56;;;;;;;0.10;0.10;;;25.10;62.30;;;;;;5000948;28;20042;-81
2022/06/06 14:10:33;;;;;;;0.00;0.00;;;24.90;59.10;;;;;;4997733;28;20033;-81
2022/06/06 14:13:24;;;;;;;0.10;0.10;;;25.00;61.10;;;;;;4997737;28;20072;-82
2022/06/06 14:15:51;;;;;;;0.22;0.22;;;24.90;59.10;;;;;;4996965;28;20045;-82
2022/06/06 14:18:38;;;;;;;0.30;0.17;;;25.10;55.60;;;;;;4999684;28;20718;-82
2022/06/06 14:21:04;;;;;;;0.00;0.00;;;25.20;59.60;;;;;;4982820;28;20525;-81
2022/06/06 14:23:35;;;;;;;0.00;0.00;;;25.10;57.70;;;;;;4997740;28;20078;-81
2022/06/06 14:26:12;;;;;;;0.00;0.00;;;25.20;59.20;;;;;;4996596;28;20087;-82
2022/06/06 14:28:43;;;;;;;0.28;0.13;;;25.40;58.80;;;;;;4998508;28;20063;-82
2022/06/06 14:31:25;;;;;;;0.05;0.05;;;25.60;59.40;;;;;;4976825;28;20735;-81
2022/06/06 14:33:57;;;;;;;0.10;0.10;;;25.70;57.40;;;;;;4998997;28;20042;-81
2022/06/06 14:36:27;;;;;;;0.20;0.20;;;26.10;57.30;;;;;;4996832;28;20049;-82
2022/06/06 14:38:58;;;;;;;2.05;1.02;;;26.30;57.80;;;;;;4981868;28;20042;-82
2022/06/06 14:41:31;;;;;;;0.00;0.00;;;25.80;57.10;;;;;;4999384;28;20116;-81
2022/06/06 14:44:03;;;;;;;0.10;0.10;;;25.60;59.70;;;;;;5007212;28;20493;-82
2022/06/06 14:46:45;;;;;;;0.57;0.47;;;25.90;59.60;;;;;;5028723;28;20112;-82
2022/06/06 14:49:21;;;;;;;0.00;0.00;;;26.40;58.80;;;;;;5012126;28;20086;-82
2022/06/06 14:51:48;;;;;;;0.75;0.28;;;26.50;59.60;;;;;;5028469;28;20079;-81
2022/06/06 14:54:15;;;;;;;0.03;0.03;;;26.40;59.10;;;;;;5025102;28;20037;-82
2022/06/06 14:56:45;;;;;;;0.13;0.10;;;26.20;58.00;;;;;;5025735;28;20030;-82
2022/06/06 14:59:15;;;;;;;0.30;0.20;;;26.20;58.50;;;;;;5027206;28;20492;-82
2022/06/06 15:02:18;;;;;;;0.10;0.10;;;26.30;58.10;;;;;;5029477;28;20539;-83
2022/06/06 15:04:46;;;;;;;0.10;0.10;;;26.50;60.30;;;;;;5030017;28;20033;-82
2022/06/06 15:07:14;;;;;;;0.00;0.00;;;26.50;57.00;;;;;;5028939;28;20056;-80
2022/06/06 15:10:07;;;;;;;0.40;0.40;;;26.20;57.30;;;;;;5009337;28;20545;-80
2022/06/06 15:12:33;;;;;;;0.10;0.10;;;26.20;56.60;;;;;;5022334;28;20067;-79
2022/06/06 15:15:02;;;;;;;0.03;0.00;;;25.70;58.30;;;;;;5030605;28;20033;-80
2022/06/06 15:17:30;;;;;;;0.10;0.10;;;25.60;58.10;;;;;;5026277;28;20067;-79
2022/06/06 15:20:00;;;;;;;0.10;0.10;;;26.00;59.80;;;;;;5023933;28;20033;-80
2022/06/06 15:22:34;;;;;;;0.20;0.20;;;26.10;59.20;;;;;;5024973;28;20048;-79
2022/06/06 15:25:00;;;;;;;0.10;0.00;;;26.10;57.90;;;;;;5025297;28;20519;-79
2022/06/06 15:27:29;;;;;;;0.10;0.10;;;25.70;56.30;;;;;;5026786;28;20048;-79
2022/06/06 15:30:03;;;;;;;0.00;0.00;;;25.80;58.90;;;;;;5028960;28;20029;-79
2022/06/06 15:32:39;;;;;;;0.00;0.00;;;25.80;57.50;;;;;;5029594;28;20511;-79